Time;durP1;ratioP1;P1;durP2;ratioP2;P2;SDS_P1;SDS_P2;PMS_P1;PMS_P2;Temp;Humidity;BMP_temperature;BMP_pressure;BME280_temperature;BME280_humidity;BME280_pressure;Samples;Min_cycle;Max_cycle;Signal;HPM_P1;HPM_P2
2024/04/13 00:01:24;;;;;;;2.97;1.40;;;14.30;99.90;;;;;;5426451;26;20002;-75
2024/04/13 00:03:51;;;;;;;3.40;1.20;;;14.30;99.90;;;;;;5399355;26;20005;-76
2024/04/13 00:06:21;;;;;;;4.25;1.25;;;14.30;99.90;;;;;;5433012;26;20551;-75
2024/04/13 00:08:47;;;;;;;1.77;0.68;;;14.20;99.90;;;;;;5402065;26;20852;-75
2024/04/13 00:11:13;;;;;;;1.88;1.00;;;14.20;99.90;;;;;;5431878;26;20053;-76
2024/04/13 00:13:40;;;;;;;3.05;1.42;;;14.20;99.90;;;;;;5375943;26;19998;-76
2024/04/13 00:16:06;;;;;;;2.47;1.35;;;14.20;99.90;;;;;;5439217;26;20012;-76
2024/04/13 00:18:33;;;;;;;4.78;2.13;;;14.10;99.90;;;;;;5399271;26;19994;-74
2024/04/13 00:21:00;;;;;;;1.65;1.00;;;14.10;99.90;;;;;;5428839;26;21155;-75
2024/04/13 00:23:26;;;;;;;2.50;1.08;;;14.10;99.90;;;;;;5427374;26;19998;-77
2024/04/13 00:25:54;;;;;;;2.88;1.42;;;14.10;99.90;;;;;;5431344;26;19998;-75
2024/04/13 00:28:21;;;;;;;3.60;1.13;;;14.10;99.90;;;;;;5458391;25;20465;-75
2024/04/13 00:30:48;;;;;;;3.97;1.50;;;14.10;99.90;;;;;;5435507;26;20006;-75
2024/04/13 00:33:14;;;;;;;2.17;0.98;;;14.10;99.90;;;;;;5407876;26;20043;-75
2024/04/13 00:35:41;;;;;;;3.38;1.38;;;14.10;99.90;;;;;;5436742;26;20009;-75
2024/04/13 00:38:12;;;;;;;1.90;1.10;;;14.10;99.90;;;;;;5431331;26;20344;-77
2024/04/13 00:40:39;;;;;;;3.03;1.50;;;14.10;99.90;;;;;;5411931;26;20010;-75
2024/04/13 00:43:09;;;;;;;2.75;1.10;;;14.10;99.90;;;;;;5427764;26;20024;-74
2024/04/13 00:45:45;;;;;;;2.22;1.10;;;14.10;99.90;;;;;;5431132;26;20010;-75
2024/04/13 00:48:12;;;;;;;2.15;0.90;;;14.00;99.90;;;;;;5431184;26;19999;-75
2024/04/13 00:50:42;;;;;;;2.58;1.02;;;14.00;99.90;;;;;;5436815;26;20016;-75
2024/04/13 00:53:11;;;;;;;1.98;1.20;;;14.00;99.90;;;;;;5442169;26;20006;-75
2024/04/13 00:55:39;;;;;;;1.55;0.90;;;14.00;99.90;;;;;;5439195;26;20012;-74
2024/04/13 00:58:07;;;;;;;1.75;0.75;;;14.00;99.90;;;;;;5400859;26;20603;-76
2024/04/13 01:00:34;;;;;;;1.67;0.88;;;13.90;99.90;;;;;;5375154;26;20381;-76
2024/04/13 01:03:01;;;;;;;2.42;1.02;;;13.90;99.90;;;;;;5421279;26;20012;-76
2024/04/13 01:05:27;;;;;;;2.38;0.98;;;13.90;99.90;;;;;;5456497;26;20006;-74
2024/04/13 01:07:54;;;;;;;2.72;1.25;;;13.90;99.90;;;;;;5434596;26;20006;-75
2024/04/13 01:10:21;;;;;;;3.60;1.40;;;13.90;99.90;;;;;;5459230;26;20334;-74
2024/04/13 01:12:49;;;;;;;3.25;1.55;;;13.90;99.90;;;;;;5403561;26;20365;-75
2024/04/13 01:15:19;;;;;;;3.08;1.17;;;13.90;99.90;;;;;;5444869;26;20024;-74
2024/04/13 01:17:49;;;;;;;3.72;1.02;;;13.90;99.90;;;;;;5403238;26;20344;-76
2024/04/13 01:20:15;;;;;;;1.60;0.77;;;13.90;99.90;;;;;;5487101;25;20006;-75
2024/04/13 01:22:46;;;;;;;2.45;0.90;;;13.90;99.90;;;;;;5399529;26;20521;-77
2024/04/13 01:25:15;;;;;;;1.67;0.70;;;13.90;99.90;;;;;;5369332;26;20437;-75
2024/04/13 01:27:41;;;;;;;1.83;0.68;;;13.80;99.90;;;;;;5427797;26;20342;-76
2024/04/13 01:30:12;;;;;;;2.10;0.70;;;13.80;99.90;;;;;;5428140;26;20006;-75
2024/04/13 01:32:39;;;;;;;1.80;0.90;;;13.80;99.90;;;;;;5438415;26;20006;-75
2024/04/13 01:35:15;;;;;;;1.60;1.00;;;13.70;99.90;;;;;;5411612;26;20002;-75
2024/04/13 01:37:42;;;;;;;2.30;1.00;;;13.70;99.90;;;;;;5461568;26;19998;-74
2024/04/13 01:40:10;;;;;;;1.98;0.95;;;13.70;99.90;;;;;;5428362;26;20345;-75
2024/04/13 01:42:39;;;;;;;1.98;1.08;;;13.70;99.90;;;;;;5397599;26;19998;-74
2024/04/13 01:45:06;;;;;;;2.83;1.20;;;13.70;99.90;;;;;;5398364;26;20469;-74
2024/04/13 01:47:32;;;;;;;2.75;1.00;;;13.70;99.90;;;;;;5397058;26;21955;-74
2024/04/13 01:49:58;;;;;;;2.63;0.90;;;13.70;99.90;;;;;;5433744;26;20002;-74
2024/04/13 01:52:25;;;;;;;2.88;0.70;;;13.60;99.90;;;;;;5441462;26;20010;-74
2024/04/13 01:54:51;;;;;;;2.45;0.90;;;13.60;99.90;;;;;;5380103;26;19998;-75
2024/04/13 01:57:18;;;;;;;1.65;0.70;;;13.60;99.90;;;;;;5372581;26;20002;-75
2024/04/13 01:59:45;;;;;;;1.95;0.80;;;13.50;99.90;;;;;;5428820;26;20006;-74
2024/04/13 02:02:11;;;;;;;1.75;0.77;;;13.50;99.90;;;;;;5369624;26;20012;-76
2024/04/13 02:04:38;;;;;;;2.08;0.90;;;13.50;99.90;;;;;;5415474;26;20010;-74
2024/04/13 02:07:05;;;;;;;1.65;0.70;;;13.50;99.90;;;;;;5427574;26;20424;-74
2024/04/13 02:09:33;;;;;;;2.67;1.13;;;13.40;99.90;;;;;;5400979;26;20353;-74
2024/04/13 02:12:02;;;;;;;2.22;0.77;;;13.40;99.90;;;;;;5410767;26;20456;-76
2024/04/13 02:14:29;;;;;;;2.80;1.20;;;13.40;99.90;;;;;;5440032;26;20003;-74
2024/04/13 02:16:55;;;;;;;2.13;0.73;;;13.40;99.90;;;;;;5396713;26;20176;-74
2024/04/13 02:19:22;;;;;;;1.42;0.70;;;13.40;99.90;;;;;;5428121;26;20021;-74
2024/04/13 02:21:48;;;;;;;1.75;0.82;;;13.30;99.90;;;;;;5395518;26;20014;-74
2024/04/13 02:24:16;;;;;;;1.90;0.60;;;13.30;99.90;;;;;;5429160;26;19998;-74
2024/04/13 02:26:42;;;;;;;2.03;0.90;;;13.20;99.90;;;;;;5457156;25;20024;-75
2024/04/13 02:29:08;;;;;;;1.30;0.60;;;13.20;99.90;;;;;;5376210;26;20016;-75
2024/04/13 02:31:36;;;;;;;1.45;0.80;;;13.20;99.90;;;;;;5407910;26;21667;-75
2024/04/13 02:34:02;;;;;;;1.25;0.85;;;13.20;99.90;;;;;;5436715;26;21338;-74
2024/04/13 02:36:29;;;;;;;1.48;0.70;;;13.10;99.90;;;;;;5400181;26;20340;-75
2024/04/13 02:38:55;;;;;;;1.63;0.82;;;13.10;99.90;;;;;;5395773;26;19998;-74
2024/04/13 02:41:22;;;;;;;1.48;0.60;;;13.10;99.90;;;;;;5395730;26;20656;-75
2024/04/13 02:43:52;;;;;;;2.67;0.90;;;13.10;99.90;;;;;;5428667;26;20484;-74
2024/04/13 02:46:21;;;;;;;2.13;0.90;;;13.10;99.90;;;;;;5426497;26;21736;-74
2024/04/13 02:48:48;;;;;;;1.80;0.80;;;13.10;99.90;;;;;;5436035;26;20003;-76
2024/04/13 02:51:15;;;;;;;2.70;1.23;;;13.10;99.90;;;;;;5411210;26;20013;-75
2024/04/13 02:53:42;;;;;;;1.65;0.77;;;13.10;99.90;;;;;;5403608;26;20010;-75
2024/04/13 02:56:08;;;;;;;2.47;1.02;;;13.10;99.90;;;;;;5425628;26;21504;-75
2024/04/13 02:58:35;;;;;;;1.58;0.80;;;13.10;99.90;;;;;;5488114;25;20017;-76
2024/04/13 03:01:03;;;;;;;2.28;0.88;;;13.10;99.90;;;;;;5400685;26;20539;-74
2024/04/13 03:03:30;;;;;;;1.58;0.90;;;13.10;99.90;;;;;;5429090;26;20013;-75
2024/04/13 03:06:11;;;;;;;2.30;1.00;;;13.00;99.90;;;;;;5429914;26;22080;-75
2024/04/13 03:08:38;;;;;;;1.58;0.70;;;13.00;99.90;;;;;;5409998;26;20781;-75
2024/04/13 03:11:05;;;;;;;2.65;1.00;;;13.00;99.90;;;;;;5413038;26;20002;-74
2024/04/13 03:13:32;;;;;;;2.13;1.00;;;12.90;99.90;;;;;;5436981;26;20008;-75
2024/04/13 03:16:03;;;;;;;2.15;0.85;;;12.90;99.90;;;;;;5376039;26;20012;-74
2024/04/13 03:18:30;;;;;;;3.30;0.90;;;12.90;99.90;;;;;;5433590;26;19998;-75
2024/04/13 03:20:57;;;;;;;2.67;1.23;;;12.90;99.90;;;;;;5438462;26;23351;-74
2024/04/13 03:23:25;;;;;;;1.80;1.02;;;12.90;99.90;;;;;;5431359;26;20459;-75
2024/04/13 03:25:52;;;;;;;1.55;0.70;;;12.90;99.90;;;;;;5403654;26;19998;-74
2024/04/13 03:28:25;;;;;;;1.77;0.60;;;12.90;99.90;;;;;;5473028;26;20010;-73
2024/04/13 03:30:52;;;;;;;1.38;0.75;;;12.90;99.90;;;;;;5443639;26;20006;-76
2024/04/13 03:33:18;;;;;;;2.30;0.77;;;12.80;99.90;;;;;;5435948;26;20006;-76
2024/04/13 03:35:44;;;;;;;1.42;0.80;;;12.80;99.90;;;;;;5435395;26;19998;-76
2024/04/13 03:38:12;;;;;;;1.13;0.60;;;12.80;99.90;;;;;;5436104;26;19998;-74
2024/04/13 03:40:39;;;;;;;1.30;0.70;;;12.80;99.90;;;;;;5456532;25;20002;-75
2024/04/13 03:43:05;;;;;;;2.22;0.70;;;12.80;99.90;;;;;;5404195;26;20002;-75
2024/04/13 03:45:33;;;;;;;3.05;1.08;;;12.70;99.90;;;;;;5414402;26;20016;-74
2024/04/13 03:48:00;;;;;;;2.40;0.93;;;12.70;99.90;;;;;;5442494;26;20471;-76
2024/04/13 03:50:26;;;;;;;1.65;0.70;;;12.70;99.90;;;;;;5442002;26;20010;-74
2024/04/13 03:52:52;;;;;;;2.35;1.20;;;12.70;99.90;;;;;;5437493;26;20016;-76
2024/04/13 03:55:19;;;;;;;2.03;0.90;;;12.60;99.90;;;;;;5432565;26;20006;-75
2024/04/13 03:57:45;;;;;;;1.98;0.90;;;12.60;99.90;;;;;;5433628;26;21301;-76
2024/04/13 04:00:13;;;;;;;1.90;1.17;;;12.60;99.90;;;;;;5405477;26;20342;-74
2024/04/13 04:02:40;;;;;;;1.52;0.70;;;12.60;99.90;;;;;;5464229;25;20016;-75
2024/04/13 04:05:06;;;;;;;1.55;0.60;;;12.50;99.90;;;;;;5409503;26;19998;-74
2024/04/13 04:07:34;;;;;;;1.52;0.75;;;12.50;99.90;;;;;;5416085;26;20002;-75
2024/04/13 04:10:00;;;;;;;2.03;1.00;;;12.40;99.90;;;;;;5410367;26;20005;-74
2024/04/13 04:12:27;;;;;;;2.17;0.80;;;12.40;99.90;;;;;;5429851;26;20025;-73
2024/04/13 04:14:53;;;;;;;1.45;0.73;;;12.40;99.90;;;;;;5403910;26;20010;-75
2024/04/13 04:17:20;;;;;;;2.13;0.80;;;12.40;99.90;;;;;;5403349;26;20005;-74
2024/04/13 04:19:46;;;;;;;2.35;0.65;;;12.30;99.90;;;;;;5435329;26;20016;-76
2024/04/13 04:22:13;;;;;;;3.30;1.25;;;12.30;99.90;;;;;;5431608;26;20585;-73
2024/04/13 04:24:39;;;;;;;1.42;0.80;;;12.30;99.90;;;;;;5411844;26;20019;-74
2024/04/13 04:27:06;;;;;;;1.92;0.75;;;12.30;99.90;;;;;;5415404;26;21428;-74
2024/04/13 04:29:33;;;;;;;1.23;0.52;;;12.30;99.90;;;;;;5381844;26;20006;-73
2024/04/13 04:31:59;;;;;;;1.55;0.70;;;12.30;99.90;;;;;;5400694;26;20005;-74
2024/04/13 04:34:26;;;;;;;1.42;0.85;;;12.20;99.90;;;;;;5376189;26;20006;-75
2024/04/13 04:36:52;;;;;;;1.42;0.60;;;12.30;99.90;;;;;;5402184;26;20026;-74
2024/04/13 04:39:18;;;;;;;2.55;0.65;;;12.20;99.90;;;;;;5435052;26;20002;-76
2024/04/13 04:41:45;;;;;;;1.75;0.85;;;12.20;99.90;;;;;;5372087;26;21520;-75
2024/04/13 04:44:12;;;;;;;1.30;0.80;;;12.20;99.90;;;;;;5414031;26;20025;-75
2024/04/13 04:46:38;;;;;;;1.60;0.90;;;12.20;99.90;;;;;;5444927;26;20348;-76
2024/04/13 04:49:05;;;;;;;2.10;0.70;;;12.20;99.90;;;;;;5440822;26;19998;-74
2024/04/13 04:51:32;;;;;;;1.67;0.88;;;12.20;99.90;;;;;;5432037;26;19998;-75
2024/04/13 04:53:59;;;;;;;1.70;0.90;;;12.20;99.90;;;;;;5433391;26;20002;-75
2024/04/13 04:56:28;;;;;;;1.73;0.90;;;12.20;99.90;;;;;;5404154;26;20366;-74
2024/04/13 04:58:56;;;;;;;3.15;1.42;;;12.20;99.90;;;;;;5385803;26;20621;-74
2024/04/13 05:01:23;;;;;;;2.40;1.10;;;12.20;99.90;;;;;;5404142;26;21126;-74
2024/04/13 05:03:49;;;;;;;1.40;0.73;;;12.20;99.90;;;;;;5411806;26;19998;-75
2024/04/13 05:06:18;;;;;;;2.05;1.00;;;12.20;99.90;;;;;;5410231;26;19998;-75
2024/04/13 05:08:45;;;;;;;2.58;1.52;;;12.20;99.90;;;;;;5404844;26;20006;-75
2024/04/13 05:11:11;;;;;;;4.13;3.10;;;12.20;99.90;;;;;;5373428;26;20454;-77
2024/04/13 05:13:40;;;;;;;5.30;4.28;;;12.20;99.90;;;;;;5432620;26;20560;-76
2024/04/13 05:16:09;;;;;;;7.85;5.25;;;12.20;99.90;;;;;;5433349;26;20010;-74
2024/04/13 05:18:37;;;;;;;7.35;4.65;;;12.20;99.90;;;;;;5488466;25;20008;-75
2024/04/13 05:21:04;;;;;;;6.03;3.85;;;12.20;99.90;;;;;;5402635;26;19999;-76
2024/04/13 05:23:30;;;;;;;4.32;2.35;;;12.20;99.90;;;;;;5376249;26;19994;-73
2024/04/13 05:25:57;;;;;;;4.03;2.08;;;12.30;99.90;;;;;;5445250;26;20316;-73
2024/04/13 05:28:26;;;;;;;2.22;1.40;;;12.30;99.90;;;;;;5377579;26;21361;-74
2024/04/13 05:31:00;;;;;;;3.53;1.67;;;12.30;99.90;;;;;;5430374;26;20777;-74
2024/04/13 05:33:27;;;;;;;2.80;1.55;;;12.40;99.90;;;;;;5402852;26;20018;-74
2024/04/13 05:35:58;;;;;;;3.22;1.80;;;12.40;99.90;;;;;;5401843;26;21224;-73
2024/04/13 05:38:24;;;;;;;3.58;2.05;;;12.40;99.90;;;;;;5407901;26;20006;-74
2024/04/13 05:40:51;;;;;;;5.10;3.25;;;12.50;99.90;;;;;;5408420;26;20494;-73
2024/04/13 05:43:19;;;;;;;4.30;2.17;;;12.60;99.90;;;;;;5372548;26;20020;-75
2024/04/13 05:45:46;;;;;;;2.83;2.33;;;12.60;99.90;;;;;;5429937;26;20527;-74
2024/04/13 05:48:12;;;;;;;3.10;2.30;;;12.70;99.90;;;;;;5378754;26;20446;-73
2024/04/13 05:50:39;;;;;;;4.30;2.45;;;12.80;99.90;;;;;;5457164;25;20938;-75
2024/04/13 05:53:05;;;;;;;6.63;2.92;;;12.80;99.90;;;;;;5401570;26;20008;-73
2024/04/13 05:55:35;;;;;;;4.18;3.15;;;12.90;99.90;;;;;;5437330;25;20002;-75
2024/04/13 05:58:03;;;;;;;5.95;4.45;;;13.00;99.90;;;;;;5441752;26;19998;-74
2024/04/13 06:00:29;;;;;;;5.40;3.97;;;13.10;99.90;;;;;;5378203;26;20140;-75
2024/04/13 06:02:55;;;;;;;8.88;6.18;;;13.10;99.90;;;;;;5399836;26;20017;-74
2024/04/13 06:05:22;;;;;;;6.25;4.40;;;13.30;99.90;;;;;;5368001;26;20006;-75
2024/04/13 06:07:49;;;;;;;9.40;6.63;;;13.30;99.90;;;;;;5371896;26;19998;-74
2024/04/13 06:10:16;;;;;;;7.97;5.25;;;13.40;99.90;;;;;;5397625;26;20717;-73
2024/04/13 06:12:43;;;;;;;7.20;4.63;;;13.50;99.90;;;;;;5399805;26;20006;-74
2024/04/13 06:15:10;;;;;;;6.93;4.55;;;13.50;99.90;;;;;;5435668;26;20006;-73
2024/04/13 06:17:36;;;;;;;4.93;3.42;;;13.60;99.90;;;;;;5439057;26;20361;-74
2024/04/13 06:20:03;;;;;;;5.50;3.10;;;13.70;99.90;;;;;;5409123;26;20575;-74
2024/04/13 06:22:29;;;;;;;5.38;3.55;;;13.70;99.90;;;;;;5372596;26;20020;-73
2024/04/13 06:24:56;;;;;;;3.47;2.53;;;13.80;99.90;;;;;;5428783;26;20471;-76
2024/04/13 06:27:22;;;;;;;2.75;1.80;;;13.90;99.90;;;;;;5400703;26;20679;-74
2024/04/13 06:29:50;;;;;;;5.13;3.15;;;14.00;99.90;;;;;;5371657;26;20010;-74
2024/04/13 06:32:17;;;;;;;6.95;2.97;;;14.10;99.90;;;;;;5399930;26;20006;-74
2024/04/13 06:34:44;;;;;;;5.47;3.55;;;14.20;99.90;;;;;;5386216;26;20016;-74
2024/04/13 06:37:12;;;;;;;4.05;2.88;;;14.30;99.90;;;;;;5493051;25;21414;-75
2024/04/13 06:39:38;;;;;;;3.10;2.42;;;14.40;99.90;;;;;;5380311;26;19998;-75
2024/04/13 06:42:05;;;;;;;3.65;2.17;;;14.50;99.90;;;;;;5424871;26;20508;-74
2024/04/13 06:44:32;;;;;;;4.38;3.22;;;14.70;99.90;;;;;;5433804;26;20010;-74
2024/04/13 06:46:58;;;;;;;4.85;2.83;;;14.80;99.90;;;;;;5409175;26;20493;-74
2024/04/13 06:49:24;;;;;;;4.90;3.17;;;14.90;99.90;;;;;;5383993;26;20459;-73
2024/04/13 06:51:51;;;;;;;6.70;5.57;;;15.10;99.90;;;;;;5435670;26;20005;-75
2024/04/13 06:54:17;;;;;;;6.40;4.05;;;15.30;99.90;;;;;;5403908;26;19998;-75
2024/04/13 06:56:43;;;;;;;5.10;3.38;;;15.40;99.90;;;;;;5431893;26;20002;-75
2024/04/13 06:59:10;;;;;;;5.90;3.92;;;15.50;99.90;;;;;;5437238;26;20348;-74
2024/04/13 07:01:36;;;;;;;7.22;4.25;;;15.60;99.90;;;;;;5433171;26;20020;-75
2024/04/13 07:04:03;;;;;;;5.20;3.17;;;15.70;99.90;;;;;;5438761;26;19998;-75
2024/04/13 07:06:36;;;;;;;5.47;3.45;;;15.70;99.90;;;;;;5413466;26;19998;-76
2024/04/13 07:09:03;;;;;;;5.85;3.75;;;15.80;99.90;;;;;;5412173;26;20010;-74
2024/04/13 07:11:30;;;;;;;4.68;3.60;;;15.90;99.90;;;;;;5375608;26;20024;-75
2024/04/13 07:13:57;;;;;;;7.22;4.85;;;16.00;99.90;;;;;;5403797;26;19998;-74
2024/04/13 07:16:23;;;;;;;3.97;3.15;;;16.20;99.90;;;;;;5458164;25;20457;-74
2024/04/13 07:18:50;;;;;;;5.68;4.18;;;16.30;99.90;;;;;;5426507;26;20341;-76
2024/04/13 07:21:16;;;;;;;5.25;3.72;;;16.30;99.90;;;;;;5433802;26;20002;-77
2024/04/13 07:23:43;;;;;;;5.60;3.30;;;16.40;99.90;;;;;;5377730;26;20084;-74
2024/04/13 07:26:09;;;;;;;5.32;3.40;;;16.50;99.90;;;;;;5444307;26;22053;-76
2024/04/13 07:28:36;;;;;;;3.90;3.15;;;16.50;99.90;;;;;;5440732;26;20002;-75
2024/04/13 07:31:02;;;;;;;5.85;3.75;;;16.60;99.90;;;;;;5378056;26;20355;-74
2024/04/13 07:33:29;;;;;;;5.63;3.60;;;16.70;99.90;;;;;;5403855;26;20009;-75
2024/04/13 07:35:55;;;;;;;5.07;2.80;;;16.80;99.90;;;;;;5433697;26;20006;-75
2024/04/13 07:38:22;;;;;;;9.27;5.60;;;16.90;99.90;;;;;;5380526;26;20103;-76
2024/04/13 07:40:48;;;;;;;5.30;4.30;;;17.10;99.90;;;;;;5367692;26;20024;-76
2024/04/13 07:43:14;;;;;;;5.15;3.75;;;17.20;99.90;;;;;;5375189;26;19998;-76
2024/04/13 07:45:46;;;;;;;5.50;3.13;;;17.30;99.90;;;;;;5413670;26;20002;-76
2024/04/13 07:48:13;;;;;;;4.90;3.58;;;17.50;99.90;;;;;;5410211;26;20463;-76
2024/04/13 07:50:39;;;;;;;6.90;4.47;;;17.60;99.90;;;;;;5374158;26;20004;-76
2024/04/13 07:53:06;;;;;;;5.50;3.67;;;17.70;99.90;;;;;;5397150;26;19998;-76
2024/04/13 07:55:32;;;;;;;5.53;3.60;;;17.90;99.90;;;;;;5427024;26;20431;-75
2024/04/13 07:57:58;;;;;;;5.53;3.22;;;18.00;99.90;;;;;;5429196;26;20006;-76
2024/04/13 08:00:25;;;;;;;5.28;3.67;;;18.10;99.90;;;;;;5403029;26;20003;-76
2024/04/13 08:02:51;;;;;;;5.22;3.90;;;18.10;99.90;;;;;;5436802;26;20010;-76
2024/04/13 08:05:18;;;;;;;4.95;3.15;;;18.30;99.90;;;;;;5444288;26;20020;-77
2024/04/13 08:07:44;;;;;;;4.18;2.63;;;18.40;99.90;;;;;;5439876;26;20012;-76
2024/04/13 08:10:11;;;;;;;3.97;2.88;;;18.60;99.90;;;;;;5431106;26;22961;-76
2024/04/13 08:12:39;;;;;;;4.63;2.85;;;18.70;99.90;;;;;;5398544;26;20441;-76
2024/04/13 08:15:08;;;;;;;5.82;3.40;;;18.90;99.90;;;;;;5426609;26;19999;-76
2024/04/13 08:17:35;;;;;;;4.10;2.78;;;19.00;99.90;;;;;;5431314;26;20029;-78
2024/04/13 08:20:02;;;;;;;3.80;3.13;;;19.10;99.90;;;;;;5409502;26;20009;-76
2024/04/13 08:22:28;;;;;;;4.20;2.58;;;19.20;99.90;;;;;;5415618;26;20010;-77
2024/04/13 08:24:54;;;;;;;4.82;3.00;;;19.30;99.90;;;;;;5437373;26;20392;-76
2024/04/13 08:27:21;;;;;;;6.25;3.92;;;19.30;99.90;;;;;;5431776;26;20014;-76
2024/04/13 08:29:49;;;;;;;5.20;3.90;;;19.40;99.90;;;;;;5427239;26;20001;-76
2024/04/13 08:32:15;;;;;;;6.13;3.92;;;19.40;99.90;;;;;;5432304;26;20679;-76
2024/04/13 08:34:42;;;;;;;7.82;4.65;;;19.50;99.90;;;;;;5437051;26;20002;-76
2024/04/13 08:37:08;;;;;;;3.47;2.47;;;19.60;99.90;;;;;;5438979;26;20684;-77
2024/04/13 08:39:35;;;;;;;5.47;3.42;;;19.60;99.90;;;;;;5385202;26;20006;-76
2024/04/13 08:42:10;;;;;;;5.68;3.85;;;19.70;99.90;;;;;;5405087;26;20006;-76
2024/04/13 08:44:38;;;;;;;5.55;3.90;;;19.70;99.90;;;;;;5374332;26;20866;-76
2024/04/13 08:47:06;;;;;;;7.88;3.75;;;19.90;99.90;;;;;;5432522;26;20006;-76
2024/04/13 08:49:39;;;;;;;4.30;2.78;;;20.00;99.90;;;;;;5403950;26;20017;-76
2024/04/13 08:52:07;;;;;;;4.22;2.95;;;20.10;99.90;;;;;;5434911;26;20356;-76
2024/04/13 08:54:33;;;;;;;5.65;3.60;;;20.20;99.90;;;;;;5384520;26;20008;-76
2024/04/13 08:57:01;;;;;;;9.18;3.33;;;20.30;99.90;;;;;;5433416;26;20875;-76
2024/04/13 08:59:28;;;;;;;6.75;4.57;;;20.40;99.90;;;;;;5403100;26;20020;-76
2024/04/13 09:01:56;;;;;;;5.05;3.90;;;20.60;99.90;;;;;;5428179;26;20154;-76
2024/04/13 09:04:22;;;;;;;5.00;3.40;;;20.60;99.90;;;;;;5433071;26;20437;-76
2024/04/13 09:06:49;;;;;;;5.00;3.88;;;20.70;99.90;;;;;;5403125;26;20012;-77
2024/04/13 09:09:16;;;;;;;6.47;3.92;;;20.80;99.90;;;;;;5376635;26;20016;-78
2024/04/13 09:11:42;;;;;;;4.03;2.15;;;20.90;99.90;;;;;;5409850;26;20467;-79
2024/04/13 09:14:11;;;;;;;4.53;3.10;;;20.90;99.90;;;;;;5431414;26;21315;-77
2024/04/13 09:16:40;;;;;;;3.47;2.08;;;21.00;99.90;;;;;;5372731;26;20016;-77
2024/04/13 09:19:06;;;;;;;5.22;3.92;;;21.10;99.90;;;;;;5456684;26;19999;-77
2024/04/13 09:21:34;;;;;;;5.03;3.40;;;21.20;99.90;;;;;;5430367;26;19999;-77
2024/04/13 09:24:02;;;;;;;5.05;3.40;;;21.30;99.90;;;;;;5404629;26;20012;-75
2024/04/13 09:26:29;;;;;;;6.03;5.28;;;21.40;99.90;;;;;;5441691;26;20026;-74
2024/04/13 09:28:56;;;;;;;6.15;4.97;;;21.50;99.90;;;;;;5413244;26;20006;-77
2024/04/13 09:31:22;;;;;;;5.88;3.47;;;21.70;99.90;;;;;;5405905;26;20352;-76
2024/04/13 09:33:50;;;;;;;4.75;2.92;;;21.80;99.90;;;;;;5398851;26;19998;-75
2024/04/13 09:36:34;;;;;;;5.82;3.78;;;21.90;99.90;;;;;;5398354;26;20567;-76
2024/04/13 09:39:01;;;;;;;7.03;3.75;;;22.00;99.90;;;;;;5403681;26;20473;-75
2024/04/13 09:41:28;;;;;;;5.07;2.88;;;22.10;99.90;;;;;;5408222;26;20026;-74
2024/04/13 09:43:55;;;;;;;5.47;3.47;;;22.10;99.90;;;;;;5413310;26;20006;-74
2024/04/13 09:46:21;;;;;;;4.38;2.90;;;22.20;99.90;;;;;;5439514;26;20010;-77
2024/04/13 09:48:48;;;;;;;4.55;2.72;;;22.30;99.90;;;;;;5435460;26;20024;-78
2024/04/13 09:51:14;;;;;;;4.35;2.40;;;22.30;99.90;;;;;;5404371;26;20467;-86
2024/04/13 09:53:42;;;;;;;6.28;3.47;;;22.50;99.90;;;;;;5402076;26;20024;-82
2024/04/13 09:56:09;;;;;;;5.28;3.05;;;22.60;99.90;;;;;;5405442;26;20006;-77
2024/04/13 09:58:37;;;;;;;6.88;3.47;;;22.70;99.90;;;;;;5380589;26;19999;-79
2024/04/13 10:01:04;;;;;;;7.55;3.35;;;22.80;99.90;;;;;;5384006;26;20016;-81
2024/04/13 10:03:31;;;;;;;5.25;3.03;;;22.90;99.90;;;;;;5398758;26;20012;-77
2024/04/13 10:06:00;;;;;;;5.25;2.55;;;23.00;99.90;;;;;;5401560;26;20003;-77
2024/04/13 10:08:29;;;;;;;5.38;2.90;;;23.20;99.90;;;;;;5436520;26;20496;-77
2024/04/13 10:10:59;;;;;;;5.10;2.38;;;23.40;99.90;;;;;;5409061;26;20690;-80
2024/04/13 10:13:32;;;;;;;2.97;1.80;;;23.50;99.90;;;;;;5407677;26;20353;-90
2024/04/13 10:16:00;;;;;;;5.47;2.92;;;23.70;99.90;;;;;;5391975;26;20006;-80
2024/04/13 10:18:27;;;;;;;6.05;4.40;;;23.80;99.90;;;;;;5420051;26;19998;-76
2024/04/13 10:21:01;;;;;;;7.65;4.88;;;24.00;99.90;;;;;;5445269;26;20321;-82
2024/04/13 10:23:44;;;;;;;9.50;5.13;;;24.00;99.90;;;;;;5427535;26;20009;-79
2024/04/13 10:26:11;;;;;;;7.70;4.40;;;24.10;99.90;;;;;;5430567;26;21600;-76
2024/04/13 10:28:38;;;;;;;5.13;3.47;;;24.20;99.90;;;;;;5440491;26;20341;-78
2024/04/13 10:31:04;;;;;;;7.90;4.68;;;24.20;99.90;;;;;;5443471;26;20337;-76
2024/04/13 10:33:32;;;;;;;4.15;2.47;;;24.40;99.90;;;;;;5440043;26;19999;-78
2024/04/13 10:36:03;;;;;;;4.20;2.60;;;24.70;99.90;;;;;;5404151;26;20002;-76
2024/04/13 10:38:31;;;;;;;4.13;3.28;;;24.90;99.90;;;;;;5399665;26;20352;-76
2024/04/13 10:40:58;;;;;;;3.75;2.30;;;25.10;99.90;;;;;;5404719;26;20003;-75
2024/04/13 10:43:25;;;;;;;6.32;3.35;;;25.20;99.90;;;;;;5431574;26;20009;-76
2024/04/13 10:46:02;;;;;;;4.97;2.80;;;25.30;99.90;;;;;;5437659;26;20341;-77
2024/04/13 10:48:30;;;;;;;5.80;2.35;;;25.50;99.90;;;;;;5413179;26;20002;-76
2024/04/13 10:50:59;;;;;;;3.70;2.35;;;25.60;99.90;;;;;;5435594;26;21220;-77
2024/04/13 10:53:27;;;;;;;5.97;3.30;;;25.80;99.90;;;;;;5402954;26;20016;-76
2024/04/13 10:55:57;;;;;;;4.75;1.90;;;26.00;99.90;;;;;;5407824;26;20002;-77
2024/04/13 10:58:31;;;;;;;5.30;2.08;;;26.30;99.90;;;;;;5434503;26;20471;-76
2024/04/13 11:00:59;;;;;;;4.60;2.35;;;26.40;99.90;;;;;;5436440;26;20348;-76
2024/04/13 11:03:27;;;;;;;3.97;1.85;;;26.50;99.90;;;;;;5410936;26;20453;-77
2024/04/13 11:05:55;;;;;;;5.38;2.20;;;26.70;99.90;;;;;;5417599;26;20469;-75
2024/04/13 11:08:23;;;;;;;4.68;1.40;;;27.00;99.90;;;;;;5407020;26;19998;-78
2024/04/13 11:10:55;;;;;;;3.45;1.67;;;27.20;99.90;;;;;;5373290;26;20014;-76
2024/04/13 11:13:23;;;;;;;4.30;1.45;;;27.40;99.90;;;;;;5428022;26;21955;-77
2024/04/13 11:15:52;;;;;;;4.38;1.55;;;27.70;99.90;;;;;;5436707;26;20005;-75
2024/04/13 11:18:21;;;;;;;3.83;1.67;;;28.00;99.90;;;;;;5435850;26;20012;-76
2024/04/13 11:21:01;;;;;;;3.83;1.92;;;28.30;99.90;;;;;;5411769;26;20006;-77
2024/04/13 11:23:28;;;;;;;2.88;1.67;;;28.40;99.50;;;;;;5420413;26;20017;-76
2024/04/13 11:25:57;;;;;;;4.70;1.70;;;28.50;98.10;;;;;;5380503;26;20044;-76
2024/04/13 11:28:24;;;;;;;9.02;2.10;;;28.40;96.90;;;;;;5432402;26;20006;-75
2024/04/13 11:30:53;;;;;;;3.85;1.17;;;28.60;96.90;;;;;;5376401;26;20010;-74
2024/04/13 11:33:19;;;;;;;3.90;1.20;;;28.80;96.70;;;;;;5403320;26;20423;-76
2024/04/13 11:35:56;;;;;;;3.42;1.13;;;29.00;96.00;;;;;;5471232;25;20004;-78
2024/04/13 11:38:26;;;;;;;3.70;1.15;;;29.20;95.30;;;;;;5445695;26;19994;-77
2024/04/13 11:40:54;;;;;;;5.53;1.23;;;29.10;94.00;;;;;;5408723;26;20332;-76
2024/04/13 11:43:24;;;;;;;2.03;0.70;;;29.00;93.40;;;;;;5373281;26;20008;-76
2024/04/13 11:45:50;;;;;;;3.80;1.38;;;28.90;93.40;;;;;;5412633;26;19994;-76
2024/04/13 11:48:17;;;;;;;2.10;0.60;;;29.00;91.50;;;;;;5405920;26;20079;-76
2024/04/13 11:50:46;;;;;;;4.65;1.50;;;29.00;91.70;;;;;;5402135;26;20006;-74
2024/04/13 11:53:12;;;;;;;5.68;0.90;;;29.10;91.00;;;;;;5432326;26;20003;-75
2024/04/13 11:55:39;;;;;;;2.90;1.10;;;29.10;90.50;;;;;;5409293;26;20051;-76
2024/04/13 11:58:06;;;;;;;3.75;1.08;;;29.10;90.70;;;;;;5423882;26;20477;-75
2024/04/13 12:00:32;;;;;;;3.95;0.88;;;29.00;90.70;;;;;;5434595;26;20387;-75
2024/04/13 12:02:58;;;;;;;1.48;0.68;;;29.10;90.10;;;;;;5429140;26;19998;-76
2024/04/13 12:05:26;;;;;;;1.65;0.65;;;29.30;90.20;;;;;;5431542;26;20451;-75
2024/04/13 12:07:52;;;;;;;4.13;1.33;;;29.40;90.00;;;;;;5435972;26;20012;-76
2024/04/13 12:10:18;;;;;;;3.50;1.00;;;29.40;88.80;;;;;;5387497;26;19994;-75
2024/04/13 12:12:45;;;;;;;3.00;1.00;;;29.60;88.70;;;;;;5412981;26;20008;-76
2024/04/13 12:15:11;;;;;;;2.45;0.90;;;29.80;87.60;;;;;;5400312;26;20341;-76
2024/04/13 12:17:38;;;;;;;2.58;0.98;;;30.10;87.50;;;;;;5401429;26;20010;-76
2024/04/13 12:20:05;;;;;;;3.45;0.80;;;30.50;86.40;;;;;;5432519;26;20002;-76
2024/04/13 12:22:31;;;;;;;4.07;0.75;;;30.70;84.60;;;;;;5402455;26;20016;-76
2024/04/13 12:25:00;;;;;;;2.15;0.70;;;30.80;85.00;;;;;;5438892;26;20002;-76
2024/04/13 12:27:27;;;;;;;3.05;0.90;;;31.10;83.00;;;;;;5412406;26;20453;-76
2024/04/13 12:29:53;;;;;;;2.92;0.85;;;31.30;82.30;;;;;;5436529;26;20017;-77
2024/04/13 12:32:20;;;;;;;2.78;0.73;;;31.30;81.40;;;;;;5405134;26;20068;-76
2024/04/13 12:34:47;;;;;;;1.63;0.60;;;31.60;81.30;;;;;;5430863;26;20346;-76
2024/04/13 12:37:14;;;;;;;4.03;0.80;;;32.00;80.50;;;;;;5431773;26;20010;-76
2024/04/13 12:39:40;;;;;;;2.28;0.70;;;32.50;78.90;;;;;;5429427;26;21648;-76
2024/04/13 12:42:07;;;;;;;3.17;0.70;;;32.50;76.80;;;;;;5409204;26;20046;-76
2024/04/13 12:44:34;;;;;;;3.30;1.02;;;32.60;76.40;;;;;;5440926;26;20016;-75
2024/04/13 12:47:01;;;;;;;4.50;1.10;;;32.70;75.70;;;;;;5405982;26;19998;-76
2024/04/13 12:49:27;;;;;;;3.35;0.98;;;32.80;74.30;;;;;;5432423;26;20353;-76